Sinclair, Wyoming
Current Conditions -  °F | °C
As of 7:53 PM on Monday 22 Dec 2014 (Local Time) from KRWL Reporting Station
Few Clouds Few Clouds  
Wind Chill:   Ceiling: Unl
Heat Index: 22°   Visibility: 10mi
Dew Point: 16°   Wind: 21mph
Humidity: 78%   Direction: 330°NNW
Pressure: 29.9"   Gusts: 31mph
Location:  41.77°N, 107.11°W
Report Text: KRWL 230253Z AUTO 33018G27KT 10SM FEW034 FEW120 M06/M09 A2990 RMK AO2 PK WND 33027/0248 SLP158 T10561089 51023
Loading
Personal Weather Stations






























Interactive Weather Map New forecast layout! Learn more

10-Day Weather Forecast

Advertisements
Track Severe Weather on mobile